sensor_id;sensor_type;location;lat;lon;timestamp;P1;durP1;ratioP1;P2;durP2;ratioP2
4106;SDS011;21906;50.812;7.132;2022-09-09T00:07:10;4.17;;;1.40;;
4106;SDS011;21906;50.812;7.132;2022-09-09T00:09:40;2.50;;;1.40;;
4106;SDS011;21906;50.812;7.132;2022-09-09T00:12:29;1.73;;;1.30;;
4106;SDS011;21906;50.812;7.132;2022-09-09T00:15:14;2.90;;;1.47;;
4106;SDS011;21906;50.812;7.132;2022-09-09T00:18:07;2.40;;;1.60;;
4106;SDS011;21906;50.812;7.132;2022-09-09T00:23:30;1.40;;;1.30;;
4106;SDS011;21906;50.812;7.132;2022-09-09T00:28:46;1.47;;;1.37;;
4106;SDS011;21906;50.812;7.132;2022-09-09T00:31:35;2.07;;;1.20;;
4106;SDS011;21906;50.812;7.132;2022-09-09T00:34:12;1.60;;;1.10;;
4106;SDS011;21906;50.812;7.132;2022-09-09T00:36:41;1.87;;;1.20;;
4106;SDS011;21906;50.812;7.132;2022-09-09T00:39:13;2.87;;;1.57;;
4106;SDS011;21906;50.812;7.132;2022-09-09T00:57:52;3.70;;;1.60;;
4106;SDS011;21906;50.812;7.132;2022-09-09T01:00:25;3.03;;;1.40;;
4106;SDS011;21906;50.812;7.132;2022-09-09T01:03:07;1.50;;;1.40;;
4106;SDS011;21906;50.812;7.132;2022-09-09T01:11:05;1.83;;;1.50;;
4106;SDS011;21906;50.812;7.132;2022-09-09T01:16:42;2.80;;;1.67;;
4106;SDS011;21906;50.812;7.132;2022-09-09T01:19:10;3.33;;;1.47;;
4106;SDS011;21906;50.812;7.132;2022-09-09T01:26:52;3.07;;;1.47;;
4106;SDS011;21906;50.812;7.132;2022-09-09T01:29:23;1.70;;;1.50;;
4106;SDS011;21906;50.812;7.132;2022-09-09T01:34:18;2.20;;;1.40;;
4106;SDS011;21906;50.812;7.132;2022-09-09T01:36:53;3.93;;;1.47;;
4106;SDS011;21906;50.812;7.132;2022-09-09T01:39:23;1.63;;;1.43;;
4106;SDS011;21906;50.812;7.132;2022-09-09T01:41:49;2.23;;;1.37;;
4106;SDS011;21906;50.812;7.132;2022-09-09T01:44:15;2.13;;;1.77;;
4106;SDS011;21906;50.812;7.132;2022-09-09T01:46:43;2.97;;;1.37;;
4106;SDS011;21906;50.812;7.132;2022-09-09T01:49:08;3.03;;;1.70;;
4106;SDS011;21906;50.812;7.132;2022-09-09T01:51:35;2.30;;;1.47;;
4106;SDS011;21906;50.812;7.132;2022-09-09T01:54:03;2.37;;;1.70;;
4106;SDS011;21906;50.812;7.132;2022-09-09T01:59:14;2.30;;;1.40;;
4106;SDS011;21906;50.812;7.132;2022-09-09T02:02:06;2.63;;;1.57;;
4106;SDS011;21906;50.812;7.132;2022-09-09T02:04:45;2.00;;;1.50;;
4106;SDS011;21906;50.812;7.132;2022-09-09T02:07:18;1.63;;;1.30;;
4106;SDS011;21906;50.812;7.132;2022-09-09T02:10:25;1.70;;;1.40;;
4106;SDS011;21906;50.812;7.132;2022-09-09T02:13:03;4.23;;;1.57;;
4106;SDS011;21906;50.812;7.132;2022-09-09T02:15:47;2.17;;;1.80;;
4106;SDS011;21906;50.812;7.132;2022-09-09T02:18:42;1.73;;;1.60;;
4106;SDS011;21906;50.812;7.132;2022-09-09T02:21:17;1.93;;;1.57;;
4106;SDS011;21906;50.812;7.132;2022-09-09T02:23:43;2.87;;;1.50;;
4106;SDS011;21906;50.812;7.132;2022-09-09T02:26:12;1.93;;;1.67;;
4106;SDS011;21906;50.812;7.132;2022-09-09T02:28:44;6.23;;;1.83;;
4106;SDS011;21906;50.812;7.132;2022-09-09T02:31:12;1.70;;;1.60;;
4106;SDS011;21906;50.812;7.132;2022-09-09T02:33:41;3.10;;;1.40;;
4106;SDS011;21906;50.812;7.132;2022-09-09T02:36:11;2.83;;;1.50;;
4106;SDS011;21906;50.812;7.132;2022-09-09T02:38:42;2.30;;;1.50;;
4106;SDS011;21906;50.812;7.132;2022-09-09T02:41:15;2.30;;;1.53;;
4106;SDS011;21906;50.812;7.132;2022-09-09T02:43:43;1.83;;;1.70;;
4106;SDS011;21906;50.812;7.132;2022-09-09T02:49:03;2.37;;;1.53;;
4106;SDS011;21906;50.812;7.132;2022-09-09T02:54:37;1.73;;;1.40;;
4106;SDS011;21906;50.812;7.132;2022-09-09T02:57:06;1.50;;;1.40;;
4106;SDS011;21906;50.812;7.132;2022-09-09T02:59:39;2.40;;;1.60;;
4106;SDS011;21906;50.812;7.132;2022-09-09T03:02:05;1.73;;;1.50;;
4106;SDS011;21906;50.812;7.132;2022-09-09T03:04:31;1.83;;;1.40;;
4106;SDS011;21906;50.812;7.132;2022-09-09T03:06:57;3.37;;;1.80;;
4106;SDS011;21906;50.812;7.132;2022-09-09T03:09:23;1.53;;;1.43;;
4106;SDS011;21906;50.812;7.132;2022-09-09T03:11:50;3.10;;;1.60;;
4106;SDS011;21906;50.812;7.132;2022-09-09T03:14:16;2.40;;;1.60;;
4106;SDS011;21906;50.812;7.132;2022-09-09T03:16:46;2.80;;;1.50;;
4106;SDS011;21906;50.812;7.132;2022-09-09T03:19:12;2.93;;;1.53;;
4106;SDS011;21906;50.812;7.132;2022-09-09T03:21:37;2.10;;;1.70;;
4106;SDS011;21906;50.812;7.132;2022-09-09T03:24:04;2.50;;;1.50;;
4106;SDS011;21906;50.812;7.132;2022-09-09T03:26:30;5.73;;;1.60;;
4106;SDS011;21906;50.812;7.132;2022-09-09T03:28:56;1.90;;;1.43;;
4106;SDS011;21906;50.812;7.132;2022-09-09T03:31:22;3.33;;;1.90;;
4106;SDS011;21906;50.812;7.132;2022-09-09T03:33:48;2.10;;;1.70;;
4106;SDS011;21906;50.812;7.132;2022-09-09T03:36:14;3.40;;;1.93;;
4106;SDS011;21906;50.812;7.132;2022-09-09T03:38:40;3.40;;;1.57;;
4106;SDS011;21906;50.812;7.132;2022-09-09T03:41:06;1.93;;;1.70;;
4106;SDS011;21906;50.812;7.132;2022-09-09T03:43:33;3.20;;;1.70;;
4106;SDS011;21906;50.812;7.132;2022-09-09T03:45:58;4.03;;;1.70;;
4106;SDS011;21906;50.812;7.132;2022-09-09T03:48:24;4.23;;;1.77;;
4106;SDS011;21906;50.812;7.132;2022-09-09T03:50:53;1.87;;;1.67;;
4106;SDS011;21906;50.812;7.132;2022-09-09T03:53:20;1.93;;;1.50;;
4106;SDS011;21906;50.812;7.132;2022-09-09T03:55:48;2.97;;;1.53;;
4106;SDS011;21906;50.812;7.132;2022-09-09T03:58:17;2.53;;;1.80;;
4106;SDS011;21906;50.812;7.132;2022-09-09T04:00:56;2.50;;;1.80;;
4106;SDS011;21906;50.812;7.132;2022-09-09T04:03:23;2.90;;;1.77;;
4106;SDS011;21906;50.812;7.132;2022-09-09T04:05:50;2.37;;;1.50;;
4106;SDS011;21906;50.812;7.132;2022-09-09T04:08:17;2.07;;;1.77;;
4106;SDS011;21906;50.812;7.132;2022-09-09T04:10:47;2.30;;;1.87;;
4106;SDS011;21906;50.812;7.132;2022-09-09T04:13:14;5.43;;;2.10;;
4106;SDS011;21906;50.812;7.132;2022-09-09T04:15:41;2.37;;;1.70;;
4106;SDS011;21906;50.812;7.132;2022-09-09T04:18:06;2.57;;;1.70;;
4106;SDS011;21906;50.812;7.132;2022-09-09T04:20:32;5.33;;;1.77;;
4106;SDS011;21906;50.812;7.132;2022-09-09T04:22:58;3.00;;;1.77;;
4106;SDS011;21906;50.812;7.132;2022-09-09T04:25:23;3.90;;;2.07;;
4106;SDS011;21906;50.812;7.132;2022-09-09T04:27:56;4.13;;;1.60;;
4106;SDS011;21906;50.812;7.132;2022-09-09T04:30:23;3.60;;;1.93;;
4106;SDS011;21906;50.812;7.132;2022-09-09T04:32:50;2.90;;;2.03;;
4106;SDS011;21906;50.812;7.132;2022-09-09T04:35:15;2.20;;;1.97;;
4106;SDS011;21906;50.812;7.132;2022-09-09T04:37:41;2.77;;;1.80;;
4106;SDS011;21906;50.812;7.132;2022-09-09T04:40:07;3.37;;;1.97;;
4106;SDS011;21906;50.812;7.132;2022-09-09T04:42:38;5.10;;;1.90;;
4106;SDS011;21906;50.812;7.132;2022-09-09T04:45:04;1.73;;;1.50;;
4106;SDS011;21906;50.812;7.132;2022-09-09T04:47:31;3.40;;;1.80;;
4106;SDS011;21906;50.812;7.132;2022-09-09T04:49:57;2.40;;;1.90;;
4106;SDS011;21906;50.812;7.132;2022-09-09T04:52:23;2.20;;;2.00;;
4106;SDS011;21906;50.812;7.132;2022-09-09T04:54:49;3.50;;;1.93;;
4106;SDS011;21906;50.812;7.132;2022-09-09T04:57:14;2.30;;;2.00;;
4106;SDS011;21906;50.812;7.132;2022-09-09T04:59:40;2.60;;;1.87;;
4106;SDS011;21906;50.812;7.132;2022-09-09T05:02:06;1.90;;;1.70;;
4106;SDS011;21906;50.812;7.132;2022-09-09T05:04:31;1.70;;;1.60;;
4106;SDS011;21906;50.812;7.132;2022-09-09T05:06:58;4.30;;;2.03;;
4106;SDS011;21906;50.812;7.132;2022-09-09T05:09:24;2.53;;;1.60;;
4106;SDS011;21906;50.812;7.132;2022-09-09T05:11:49;2.00;;;1.70;;
4106;SDS011;21906;50.812;7.132;2022-09-09T05:14:16;3.47;;;1.97;;
4106;SDS011;21906;50.812;7.132;2022-09-09T05:16:43;3.73;;;1.87;;
4106;SDS011;21906;50.812;7.132;2022-09-09T05:19:10;5.77;;;2.00;;
4106;SDS011;21906;50.812;7.132;2022-09-09T05:21:36;1.80;;;1.70;;
4106;SDS011;21906;50.812;7.132;2022-09-09T05:24:02;3.20;;;1.73;;
4106;SDS011;21906;50.812;7.132;2022-09-09T05:26:28;4.03;;;1.70;;
4106;SDS011;21906;50.812;7.132;2022-09-09T05:28:54;2.03;;;1.63;;
4106;SDS011;21906;50.812;7.132;2022-09-09T05:31:20;2.23;;;1.50;;
4106;SDS011;21906;50.812;7.132;2022-09-09T05:33:46;2.57;;;1.53;;
4106;SDS011;21906;50.812;7.132;2022-09-09T05:36:15;1.70;;;1.60;;
4106;SDS011;21906;50.812;7.132;2022-09-09T05:38:42;2.40;;;1.83;;
4106;SDS011;21906;50.812;7.132;2022-09-09T05:41:09;3.70;;;1.90;;
4106;SDS011;21906;50.812;7.132;2022-09-09T05:43:40;2.60;;;1.77;;
4106;SDS011;21906;50.812;7.132;2022-09-09T05:46:18;2.57;;;1.70;;
4106;SDS011;21906;50.812;7.132;2022-09-09T05:48:46;1.70;;;1.60;;
4106;SDS011;21906;50.812;7.132;2022-09-09T05:51:13;2.40;;;1.70;;
4106;SDS011;21906;50.812;7.132;2022-09-09T05:53:43;1.93;;;1.63;;
4106;SDS011;21906;50.812;7.132;2022-09-09T05:56:20;2.17;;;1.60;;
4106;SDS011;21906;50.812;7.132;2022-09-09T05:58:48;2.60;;;1.50;;
4106;SDS011;21906;50.812;7.132;2022-09-09T06:01:18;6.57;;;1.97;;
4106;SDS011;21906;50.812;7.132;2022-09-09T06:03:48;3.07;;;2.00;;
4106;SDS011;21906;50.812;7.132;2022-09-09T06:06:18;4.13;;;1.63;;
4106;SDS011;21906;50.812;7.132;2022-09-09T06:08:52;3.13;;;1.70;;
4106;SDS011;21906;50.812;7.132;2022-09-09T06:11:30;2.30;;;1.77;;
4106;SDS011;21906;50.812;7.132;2022-09-09T06:13:56;2.83;;;1.60;;
4106;SDS011;21906;50.812;7.132;2022-09-09T06:16:23;2.63;;;2.00;;
4106;SDS011;21906;50.812;7.132;2022-09-09T06:18:50;4.10;;;1.97;;
4106;SDS011;21906;50.812;7.132;2022-09-09T06:23:46;2.40;;;1.93;;
4106;SDS011;21906;50.812;7.132;2022-09-09T06:26:16;2.13;;;1.60;;
4106;SDS011;21906;50.812;7.132;2022-09-09T06:28:44;2.40;;;1.70;;
4106;SDS011;21906;50.812;7.132;2022-09-09T06:31:13;2.90;;;1.90;;
4106;SDS011;21906;50.812;7.132;2022-09-09T06:33:42;3.03;;;2.10;;
4106;SDS011;21906;50.812;7.132;2022-09-09T06:36:12;3.30;;;1.87;;
4106;SDS011;21906;50.812;7.132;2022-09-09T06:38:40;5.43;;;2.13;;
4106;SDS011;21906;50.812;7.132;2022-09-09T06:41:07;2.90;;;1.70;;
4106;SDS011;21906;50.812;7.132;2022-09-09T06:43:34;2.43;;;1.70;;
4106;SDS011;21906;50.812;7.132;2022-09-09T06:46:22;2.20;;;1.80;;
4106;SDS011;21906;50.812;7.132;2022-09-09T06:48:47;3.00;;;1.97;;
4106;SDS011;21906;50.812;7.132;2022-09-09T06:51:22;2.40;;;1.70;;
4106;SDS011;21906;50.812;7.132;2022-09-09T06:53:51;2.83;;;1.83;;
4106;SDS011;21906;50.812;7.132;2022-09-09T06:58:52;4.20;;;1.93;;
4106;SDS011;21906;50.812;7.132;2022-09-09T07:01:20;2.80;;;1.90;;
4106;SDS011;21906;50.812;7.132;2022-09-09T07:03:48;2.43;;;1.63;;
4106;SDS011;21906;50.812;7.132;2022-09-09T07:06:17;4.00;;;1.90;;
4106;SDS011;21906;50.812;7.132;2022-09-09T07:08:48;5.33;;;2.10;;
4106;SDS011;21906;50.812;7.132;2022-09-09T07:11:18;3.07;;;2.00;;
4106;SDS011;21906;50.812;7.132;2022-09-09T07:13:45;2.63;;;1.80;;
4106;SDS011;21906;50.812;7.132;2022-09-09T07:16:12;4.60;;;2.33;;
4106;SDS011;21906;50.812;7.132;2022-09-09T07:18:39;3.63;;;1.80;;
4106;SDS011;21906;50.812;7.132;2022-09-09T07:21:07;3.27;;;1.50;;
4106;SDS011;21906;50.812;7.132;2022-09-09T07:23:34;2.67;;;1.90;;
4106;SDS011;21906;50.812;7.132;2022-09-09T07:26:01;2.03;;;1.83;;
4106;SDS011;21906;50.812;7.132;2022-09-09T07:28:27;2.80;;;1.60;;
4106;SDS011;21906;50.812;7.132;2022-09-09T07:30:57;4.13;;;2.00;;
4106;SDS011;21906;50.812;7.132;2022-09-09T07:33:24;2.10;;;1.50;;
4106;SDS011;21906;50.812;7.132;2022-09-09T07:35:50;5.90;;;1.60;;
4106;SDS011;21906;50.812;7.132;2022-09-09T07:38:17;2.03;;;1.50;;
4106;SDS011;21906;50.812;7.132;2022-09-09T07:40:43;3.00;;;1.70;;
4106;SDS011;21906;50.812;7.132;2022-09-09T07:43:09;2.30;;;1.60;;
4106;SDS011;21906;50.812;7.132;2022-09-09T07:45:36;5.00;;;1.80;;
4106;SDS011;21906;50.812;7.132;2022-09-09T07:48:03;2.83;;;1.57;;
4106;SDS011;21906;50.812;7.132;2022-09-09T07:50:29;3.97;;;1.60;;
4106;SDS011;21906;50.812;7.132;2022-09-09T07:52:55;1.60;;;1.30;;
4106;SDS011;21906;50.812;7.132;2022-09-09T07:55:21;3.33;;;1.60;;
4106;SDS011;21906;50.812;7.132;2022-09-09T07:57:50;2.37;;;1.70;;
4106;SDS011;21906;50.812;7.132;2022-09-09T08:00:16;3.93;;;1.50;;
4106;SDS011;21906;50.812;7.132;2022-09-09T08:02:44;3.73;;;1.80;;
4106;SDS011;21906;50.812;7.132;2022-09-09T08:05:11;5.23;;;2.40;;
4106;SDS011;21906;50.812;7.132;2022-09-09T08:07:37;3.00;;;1.47;;
4106;SDS011;21906;50.812;7.132;2022-09-09T08:10:03;3.90;;;1.90;;
4106;SDS011;21906;50.812;7.132;2022-09-09T08:12:29;1.90;;;1.60;;
4106;SDS011;21906;50.812;7.132;2022-09-09T08:14:55;3.37;;;1.50;;
4106;SDS011;21906;50.812;7.132;2022-09-09T08:17:21;2.90;;;1.90;;
4106;SDS011;21906;50.812;7.132;2022-09-09T08:19:46;3.80;;;1.93;;
4106;SDS011;21906;50.812;7.132;2022-09-09T08:22:12;2.07;;;1.60;;
4106;SDS011;21906;50.812;7.132;2022-09-09T08:24:37;4.07;;;1.67;;
4106;SDS011;21906;50.812;7.132;2022-09-09T08:27:04;5.27;;;1.80;;
4106;SDS011;21906;50.812;7.132;2022-09-09T08:29:30;3.03;;;1.50;;
4106;SDS011;21906;50.812;7.132;2022-09-09T08:31:56;3.40;;;1.90;;
4106;SDS011;21906;50.812;7.132;2022-09-09T08:34:23;2.53;;;1.90;;
4106;SDS011;21906;50.812;7.132;2022-09-09T08:36:52;2.50;;;1.73;;
4106;SDS011;21906;50.812;7.132;2022-09-09T08:39:18;2.93;;;1.73;;
4106;SDS011;21906;50.812;7.132;2022-09-09T08:55:24;3.30;;;2.17;;
4106;SDS011;21906;50.812;7.132;2022-09-09T08:58:17;2.37;;;1.90;;
4106;SDS011;21906;50.812;7.132;2022-09-09T09:04:05;2.60;;;1.53;;
4106;SDS011;21906;50.812;7.132;2022-09-09T09:19:22;2.43;;;1.60;;
4106;SDS011;21906;50.812;7.132;2022-09-09T09:21:52;2.63;;;1.37;;
4106;SDS011;21906;50.812;7.132;2022-09-09T09:30:40;1.77;;;1.50;;
4106;SDS011;21906;50.812;7.132;2022-09-09T09:35:43;2.33;;;1.40;;
4106;SDS011;21906;50.812;7.132;2022-09-09T09:38:19;2.60;;;1.57;;
4106;SDS011;21906;50.812;7.132;2022-09-09T09:40:51;1.73;;;1.47;;
4106;SDS011;21906;50.812;7.132;2022-09-09T09:45:58;4.37;;;1.50;;
4106;SDS011;21906;50.812;7.132;2022-09-09T09:48:25;2.03;;;1.47;;
4106;SDS011;21906;50.812;7.132;2022-09-09T09:50:55;2.90;;;1.97;;
4106;SDS011;21906;50.812;7.132;2022-09-09T09:53:27;1.57;;;1.30;;
4106;SDS011;21906;50.812;7.132;2022-09-09T09:58:25;1.80;;;1.40;;
4106;SDS011;21906;50.812;7.132;2022-09-09T10:00:56;1.70;;;1.50;;
4106;SDS011;21906;50.812;7.132;2022-09-09T10:05:49;2.10;;;1.40;;
4106;SDS011;21906;50.812;7.132;2022-09-09T10:08:15;2.67;;;1.30;;
4106;SDS011;21906;50.812;7.132;2022-09-09T10:17:06;1.67;;;1.10;;
4106;SDS011;21906;50.812;7.132;2022-09-09T10:19:29;2.00;;;1.47;;
4106;SDS011;21906;50.812;7.132;2022-09-09T10:30:10;3.00;;;1.40;;
4106;SDS011;21906;50.812;7.132;2022-09-09T10:49:17;1.67;;;1.40;;
4106;SDS011;21906;50.812;7.132;2022-09-09T10:55:13;3.67;;;1.50;;
4106;SDS011;21906;50.812;7.132;2022-09-09T10:57:40;6.33;;;1.83;;
4106;SDS011;21906;50.812;7.132;2022-09-09T11:00:14;1.97;;;1.80;;
4106;SDS011;21906;50.812;7.132;2022-09-09T11:02:40;3.97;;;1.57;;
4106;SDS011;21906;50.812;7.132;2022-09-09T11:05:19;3.37;;;1.60;;
4106;SDS011;21906;50.812;7.132;2022-09-09T11:08:20;1.60;;;1.50;;
4106;SDS011;21906;50.812;7.132;2022-09-09T11:21:53;2.10;;;1.20;;
4106;SDS011;21906;50.812;7.132;2022-09-09T11:26:49;4.03;;;1.53;;
4106;SDS011;21906;50.812;7.132;2022-09-09T11:41:05;2.10;;;1.53;;
4106;SDS011;21906;50.812;7.132;2022-09-09T11:43:46;1.60;;;1.40;;
4106;SDS011;21906;50.812;7.132;2022-09-09T11:46:16;1.60;;;1.30;;
4106;SDS011;21906;50.812;7.132;2022-09-09T11:48:45;1.80;;;1.20;;
4106;SDS011;21906;50.812;7.132;2022-09-09T11:51:27;3.67;;;1.40;;
4106;SDS011;21906;50.812;7.132;2022-09-09T11:59:27;1.33;;;1.20;;
4106;SDS011;21906;50.812;7.132;2022-09-09T12:04:46;1.50;;;1.30;;
4106;SDS011;21906;50.812;7.132;2022-09-09T12:07:29;2.17;;;1.50;;
4106;SDS011;21906;50.812;7.132;2022-09-09T12:10:01;2.20;;;1.47;;
4106;SDS011;21906;50.812;7.132;2022-09-09T12:12:38;2.80;;;1.40;;
4106;SDS011;21906;50.812;7.132;2022-09-09T12:17:42;2.13;;;1.40;;
4106;SDS011;21906;50.812;7.132;2022-09-09T12:20:15;1.37;;;1.20;;
4106;SDS011;21906;50.812;7.132;2022-09-09T12:27:49;2.37;;;1.50;;
4106;SDS011;21906;50.812;7.132;2022-09-09T12:30:30;1.30;;;1.10;;
4106;SDS011;21906;50.812;7.132;2022-09-09T12:33:33;1.70;;;1.30;;
4106;SDS011;21906;50.812;7.132;2022-09-09T12:36:08;3.30;;;1.33;;
4106;SDS011;21906;50.812;7.132;2022-09-09T12:38:40;1.40;;;1.27;;
4106;SDS011;21906;50.812;7.132;2022-09-09T12:41:17;1.50;;;1.30;;
4106;SDS011;21906;50.812;7.132;2022-09-09T12:43:45;1.73;;;1.33;;
4106;SDS011;21906;50.812;7.132;2022-09-09T12:46:15;3.10;;;1.30;;
4106;SDS011;21906;50.812;7.132;2022-09-09T12:48:51;2.03;;;1.20;;
4106;SDS011;21906;50.812;7.132;2022-09-09T12:51:26;3.00;;;1.30;;
4106;SDS011;21906;50.812;7.132;2022-09-09T12:53:54;1.73;;;1.30;;
4106;SDS011;21906;50.812;7.132;2022-09-09T12:56:22;2.30;;;1.30;;
4106;SDS011;21906;50.812;7.132;2022-09-09T12:58:54;2.80;;;1.20;;
4106;SDS011;21906;50.812;7.132;2022-09-09T13:01:23;2.63;;;1.40;;
4106;SDS011;21906;50.812;7.132;2022-09-09T13:03:57;2.60;;;1.33;;
4106;SDS011;21906;50.812;7.132;2022-09-09T13:06:26;1.87;;;1.10;;
4106;SDS011;21906;50.812;7.132;2022-09-09T13:08:54;2.53;;;1.23;;
4106;SDS011;21906;50.812;7.132;2022-09-09T13:11:26;1.73;;;1.30;;
4106;SDS011;21906;50.812;7.132;2022-09-09T13:13:58;1.77;;;1.30;;
4106;SDS011;21906;50.812;7.132;2022-09-09T13:16:29;3.30;;;1.27;;
4106;SDS011;21906;50.812;7.132;2022-09-09T13:19:17;1.57;;;1.30;;
4106;SDS011;21906;50.812;7.132;2022-09-09T13:21:42;2.80;;;1.13;;
4106;SDS011;21906;50.812;7.132;2022-09-09T13:27:50;1.67;;;1.20;;
4106;SDS011;21906;50.812;7.132;2022-09-09T13:29:54;2.07;;;1.50;;
4106;SDS011;21906;50.812;7.132;2022-09-09T13:32:21;2.00;;;1.50;;
4106;SDS011;21906;50.812;7.132;2022-09-09T13:34:55;3.13;;;1.30;;
4106;SDS011;21906;50.812;7.132;2022-09-09T13:37:24;2.17;;;1.03;;
4106;SDS011;21906;50.812;7.132;2022-09-09T13:39:53;4.20;;;1.20;;
4106;SDS011;21906;50.812;7.132;2022-09-09T13:42:24;1.30;;;1.20;;
4106;SDS011;21906;50.812;7.132;2022-09-09T13:44:52;1.50;;;1.20;;
4106;SDS011;21906;50.812;7.132;2022-09-09T13:47:19;1.73;;;1.20;;
4106;SDS011;21906;50.812;7.132;2022-09-09T13:49:48;1.47;;;1.17;;
4106;SDS011;21906;50.812;7.132;2022-09-09T13:52:15;2.67;;;1.30;;
4106;SDS011;21906;50.812;7.132;2022-09-09T13:54:43;2.03;;;1.43;;
4106;SDS011;21906;50.812;7.132;2022-09-09T13:57:17;2.60;;;1.60;;
4106;SDS011;21906;50.812;7.132;2022-09-09T13:59:45;1.23;;;1.10;;
4106;SDS011;21906;50.812;7.132;2022-09-09T14:02:12;2.27;;;1.03;;
4106;SDS011;21906;50.812;7.132;2022-09-09T14:04:38;1.27;;;1.10;;
4106;SDS011;21906;50.812;7.132;2022-09-09T14:07:07;1.03;;;0.93;;
4106;SDS011;21906;50.812;7.132;2022-09-09T14:09:41;1.47;;;1.00;;
4106;SDS011;21906;50.812;7.132;2022-09-09T14:12:13;1.37;;;0.97;;
4106;SDS011;21906;50.812;7.132;2022-09-09T14:14:40;1.80;;;1.13;;
4106;SDS011;21906;50.812;7.132;2022-09-09T14:17:07;1.63;;;1.00;;
4106;SDS011;21906;50.812;7.132;2022-09-09T14:19:33;1.80;;;1.10;;
4106;SDS011;21906;50.812;7.132;2022-09-09T14:21:58;2.03;;;1.10;;
4106;SDS011;21906;50.812;7.132;2022-09-09T14:24:25;1.30;;;1.10;;
4106;SDS011;21906;50.812;7.132;2022-09-09T14:26:51;1.10;;;1.00;;
4106;SDS011;21906;50.812;7.132;2022-09-09T14:29:16;2.17;;;1.20;;
4106;SDS011;21906;50.812;7.132;2022-09-09T14:31:42;2.23;;;1.10;;
4106;SDS011;21906;50.812;7.132;2022-09-09T14:34:07;1.30;;;1.00;;
4106;SDS011;21906;50.812;7.132;2022-09-09T14:36:36;1.67;;;1.07;;
4106;SDS011;21906;50.812;7.132;2022-09-09T14:39:02;1.10;;;0.90;;
4106;SDS011;21906;50.812;7.132;2022-09-09T14:41:28;1.10;;;0.90;;
4106;SDS011;21906;50.812;7.132;2022-09-09T14:43:55;1.20;;;0.90;;
4106;SDS011;21906;50.812;7.132;2022-09-09T14:46:21;1.10;;;0.93;;
4106;SDS011;21906;50.812;7.132;2022-09-09T14:48:47;2.70;;;1.10;;
4106;SDS011;21906;50.812;7.132;2022-09-09T14:51:20;0.93;;;0.83;;
4106;SDS011;21906;50.812;7.132;2022-09-09T14:53:47;1.00;;;0.90;;
4106;SDS011;21906;50.812;7.132;2022-09-09T14:56:16;1.77;;;1.10;;
4106;SDS011;21906;50.812;7.132;2022-09-09T14:58:44;2.60;;;0.90;;
4106;SDS011;21906;50.812;7.132;2022-09-09T15:01:14;1.13;;;1.00;;
4106;SDS011;21906;50.812;7.132;2022-09-09T15:03:41;1.33;;;1.20;;
4106;SDS011;21906;50.812;7.132;2022-09-09T15:06:13;1.33;;;1.10;;
4106;SDS011;21906;50.812;7.132;2022-09-09T15:08:43;1.20;;;1.10;;
4106;SDS011;21906;50.812;7.132;2022-09-09T15:11:10;1.10;;;0.90;;
4106;SDS011;21906;50.812;7.132;2022-09-09T15:13:38;1.00;;;0.90;;
4106;SDS011;21906;50.812;7.132;2022-09-09T15:16:09;1.30;;;0.87;;
4106;SDS011;21906;50.812;7.132;2022-09-09T15:18:36;0.90;;;0.80;;
4106;SDS011;21906;50.812;7.132;2022-09-09T15:21:10;1.10;;;1.00;;
4106;SDS011;21906;50.812;7.132;2022-09-09T15:23:40;1.10;;;1.00;;
4106;SDS011;21906;50.812;7.132;2022-09-09T15:26:07;1.13;;;0.87;;
4106;SDS011;21906;50.812;7.132;2022-09-09T15:28:34;1.50;;;1.33;;
4106;SDS011;21906;50.812;7.132;2022-09-09T15:31:04;6.73;;;1.60;;
4106;SDS011;21906;50.812;7.132;2022-09-09T15:33:32;4.30;;;1.57;;
4106;SDS011;21906;50.812;7.132;2022-09-09T15:35:58;2.80;;;1.40;;
4106;SDS011;21906;50.812;7.132;2022-09-09T15:38:24;4.07;;;1.90;;
4106;SDS011;21906;50.812;7.132;2022-09-09T15:40:56;8.87;;;1.70;;
4106;SDS011;21906;50.812;7.132;2022-09-09T15:43:22;1.60;;;1.33;;
4106;SDS011;21906;50.812;7.132;2022-09-09T15:45:49;3.87;;;1.57;;
4106;SDS011;21906;50.812;7.132;2022-09-09T15:48:23;4.10;;;1.80;;
4106;SDS011;21906;50.812;7.132;2022-09-09T15:51:02;3.23;;;1.53;;
4106;SDS011;21906;50.812;7.132;2022-09-09T15:53:28;2.67;;;1.60;;
4106;SDS011;21906;50.812;7.132;2022-09-09T15:55:55;2.17;;;1.23;;
4106;SDS011;21906;50.812;7.132;2022-09-09T15:58:21;2.17;;;1.40;;
4106;SDS011;21906;50.812;7.132;2022-09-09T16:00:46;2.77;;;1.50;;
4106;SDS011;21906;50.812;7.132;2022-09-09T16:03:12;2.30;;;1.40;;
4106;SDS011;21906;50.812;7.132;2022-09-09T16:05:38;1.40;;;1.30;;
4106;SDS011;21906;50.812;7.132;2022-09-09T16:08:03;2.33;;;1.50;;
4106;SDS011;21906;50.812;7.132;2022-09-09T16:10:29;1.87;;;1.20;;
4106;SDS011;21906;50.812;7.132;2022-09-09T16:12:55;1.20;;;1.10;;
4106;SDS011;21906;50.812;7.132;2022-09-09T16:15:21;2.03;;;1.30;;
4106;SDS011;21906;50.812;7.132;2022-09-09T16:17:48;1.93;;;1.70;;
4106;SDS011;21906;50.812;7.132;2022-09-09T16:20:14;2.93;;;1.60;;
4106;SDS011;21906;50.812;7.132;2022-09-09T16:22:40;2.33;;;1.70;;
4106;SDS011;21906;50.812;7.132;2022-09-09T16:25:07;1.67;;;1.43;;
4106;SDS011;21906;50.812;7.132;2022-09-09T16:27:33;1.30;;;1.20;;
4106;SDS011;21906;50.812;7.132;2022-09-09T16:29:58;3.40;;;2.00;;
4106;SDS011;21906;50.812;7.132;2022-09-09T16:32:24;2.60;;;1.33;;
4106;SDS011;21906;50.812;7.132;2022-09-09T16:34:50;1.60;;;1.50;;
4106;SDS011;21906;50.812;7.132;2022-09-09T16:37:16;4.10;;;2.03;;
4106;SDS011;21906;50.812;7.132;2022-09-09T16:39:42;3.60;;;1.80;;
4106;SDS011;21906;50.812;7.132;2022-09-09T16:42:08;1.40;;;1.30;;
4106;SDS011;21906;50.812;7.132;2022-09-09T16:44:34;3.20;;;1.97;;
4106;SDS011;21906;50.812;7.132;2022-09-09T16:47:00;1.97;;;1.60;;
4106;SDS011;21906;50.812;7.132;2022-09-09T16:49:25;1.63;;;1.53;;
4106;SDS011;21906;50.812;7.132;2022-09-09T16:51:53;1.90;;;1.80;;
4106;SDS011;21906;50.812;7.132;2022-09-09T16:54:18;3.17;;;1.80;;
4106;SDS011;21906;50.812;7.132;2022-09-09T16:56:45;1.83;;;1.60;;
4106;SDS011;21906;50.812;7.132;2022-09-09T16:59:14;1.90;;;1.80;;
4106;SDS011;21906;50.812;7.132;2022-09-09T17:01:42;2.90;;;2.53;;
4106;SDS011;21906;50.812;7.132;2022-09-09T17:04:10;2.20;;;2.00;;
4106;SDS011;21906;50.812;7.132;2022-09-09T17:06:49;3.70;;;1.90;;
4106;SDS011;21906;50.812;7.132;2022-09-09T17:09:16;2.07;;;1.73;;
4106;SDS011;21906;50.812;7.132;2022-09-09T17:11:43;3.47;;;1.60;;
4106;SDS011;21906;50.812;7.132;2022-09-09T17:14:10;1.73;;;1.63;;
4106;SDS011;21906;50.812;7.132;2022-09-09T17:16:38;3.43;;;1.80;;
4106;SDS011;21906;50.812;7.132;2022-09-09T17:19:05;1.80;;;1.70;;
4106;SDS011;21906;50.812;7.132;2022-09-09T17:21:33;2.40;;;2.20;;
4106;SDS011;21906;50.812;7.132;2022-09-09T17:23:59;4.27;;;2.13;;
4106;SDS011;21906;50.812;7.132;2022-09-09T17:26:26;2.70;;;2.10;;
4106;SDS011;21906;50.812;7.132;2022-09-09T17:28:54;7.77;;;2.00;;
4106;SDS011;21906;50.812;7.132;2022-09-09T17:31:23;3.37;;;2.37;;
4106;SDS011;21906;50.812;7.132;2022-09-09T17:33:51;2.50;;;2.30;;
4106;SDS011;21906;50.812;7.132;2022-09-09T17:38:47;2.80;;;1.90;;
4106;SDS011;21906;50.812;7.132;2022-09-09T17:41:18;4.80;;;2.37;;
4106;SDS011;21906;50.812;7.132;2022-09-09T17:43:46;4.20;;;2.20;;
4106;SDS011;21906;50.812;7.132;2022-09-09T17:46:16;2.50;;;2.17;;
4106;SDS011;21906;50.812;7.132;2022-09-09T17:48:47;2.33;;;1.90;;
4106;SDS011;21906;50.812;7.132;2022-09-09T17:51:17;6.37;;;2.80;;
4106;SDS011;21906;50.812;7.132;2022-09-09T17:53:46;2.57;;;2.10;;
4106;SDS011;21906;50.812;7.132;2022-09-09T17:56:14;2.63;;;2.00;;
4106;SDS011;21906;50.812;7.132;2022-09-09T17:58:42;4.47;;;2.50;;
4106;SDS011;21906;50.812;7.132;2022-09-09T18:01:09;2.60;;;1.90;;
4106;SDS011;21906;50.812;7.132;2022-09-09T18:03:40;2.20;;;1.80;;
4106;SDS011;21906;50.812;7.132;2022-09-09T18:06:11;2.00;;;1.73;;
4106;SDS011;21906;50.812;7.132;2022-09-09T18:08:46;2.00;;;1.90;;
4106;SDS011;21906;50.812;7.132;2022-09-09T18:11:17;2.50;;;1.97;;
4106;SDS011;21906;50.812;7.132;2022-09-09T18:13:51;2.30;;;2.00;;
4106;SDS011;21906;50.812;7.132;2022-09-09T18:16:19;2.23;;;1.73;;
4106;SDS011;21906;50.812;7.132;2022-09-09T18:18:46;2.77;;;1.63;;